Time;durP1;ratioP1;P1;durP2;ratioP2;P2;SDS_P1;SDS_P2;PMS_P1;PMS_P2;Temp;Humidity;BMP_temperature;BMP_pressure;BME280_temperature;BME280_humidity;BME280_pressure;Samples;Min_cycle;Max_cycle;Signal;HPM_P1;HPM_P2
2023/12/08 00:00:27;;;;;;;31.27;20.50;;;2.00;99.90;;;;;;4972355;28;20050;-81
2023/12/08 00:02:54;;;;;;;32.40;20.00;;;1.90;99.90;;;;;;4957325;28;20049;-81
2023/12/08 00:05:19;;;;;;;30.10;19.20;;;2.00;99.90;;;;;;4976938;28;20764;-81
2023/12/08 00:07:45;;;;;;;29.73;19.50;;;2.00;99.90;;;;;;4956281;28;20053;-80
2023/12/08 00:10:11;;;;;;;27.73;18.03;;;2.00;99.90;;;;;;4941906;28;20039;-81
2023/12/08 00:12:37;;;;;;;31.53;19.47;;;2.00;99.90;;;;;;4956988;28;20078;-81
2023/12/08 00:15:03;;;;;;;32.43;20.83;;;2.00;99.90;;;;;;4972983;28;20042;-81
2023/12/08 00:17:28;;;;;;;30.00;19.13;;;2.00;99.90;;;;;;4958370;28;20084;-81
2023/12/08 00:19:54;;;;;;;29.73;19.47;;;2.00;99.90;;;;;;4971213;28;20038;-81
2023/12/08 00:22:20;;;;;;;35.47;22.70;;;2.00;99.90;;;;;;4975041;28;20076;-81
2023/12/08 00:24:46;;;;;;;33.53;21.10;;;2.00;99.90;;;;;;4956458;28;20125;-81
2023/12/08 00:27:12;;;;;;;30.40;19.97;;;1.90;99.90;;;;;;4972846;28;20149;-81
2023/12/08 00:29:38;;;;;;;27.30;18.27;;;1.90;99.90;;;;;;4976371;28;20479;-81
2023/12/08 00:32:04;;;;;;;32.80;21.23;;;1.90;99.90;;;;;;4956949;28;20034;-81
2023/12/08 00:34:30;;;;;;;32.57;20.80;;;1.90;99.90;;;;;;4972992;28;20049;-81
2023/12/08 00:36:55;;;;;;;33.10;20.90;;;1.80;99.90;;;;;;4990177;28;20042;-81
2023/12/08 00:39:22;;;;;;;31.47;20.90;;;1.90;99.90;;;;;;4958281;28;20042;-81
2023/12/08 00:41:47;;;;;;;32.63;20.63;;;1.90;99.90;;;;;;4936531;28;20085;-81
2023/12/08 00:44:13;;;;;;;31.47;20.87;;;1.90;99.90;;;;;;4958809;28;20077;-81
2023/12/08 00:46:39;;;;;;;29.60;19.03;;;1.90;99.90;;;;;;4942087;28;20044;-81
2023/12/08 00:49:04;;;;;;;29.70;19.70;;;1.80;99.90;;;;;;4964501;28;20597;-82
2023/12/08 00:51:30;;;;;;;30.83;19.60;;;1.90;99.90;;;;;;4942843;28;20042;-81
2023/12/08 00:53:56;;;;;;;29.83;19.57;;;1.90;99.90;;;;;;4959416;28;20038;-81
2023/12/08 00:56:21;;;;;;;29.07;19.40;;;1.90;99.90;;;;;;4954020;28;20060;-82
2023/12/08 00:58:47;;;;;;;29.23;19.53;;;1.80;99.90;;;;;;4958466;28;20124;-81
2023/12/08 01:01:13;;;;;;;30.97;19.60;;;1.80;99.90;;;;;;4942075;28;20484;-81
2023/12/08 01:03:38;;;;;;;28.40;20.07;;;1.80;99.90;;;;;;4987980;28;20042;-81
2023/12/08 01:06:04;;;;;;;27.23;19.10;;;1.80;99.90;;;;;;4957886;28;20038;-81
2023/12/08 01:08:30;;;;;;;27.43;18.93;;;1.80;99.90;;;;;;4937807;28;20035;-81
2023/12/08 01:10:56;;;;;;;29.87;20.20;;;1.80;99.90;;;;;;4989224;28;20124;-80
2023/12/08 01:13:21;;;;;;;30.73;19.43;;;1.80;99.90;;;;;;4986815;28;20590;-80
2023/12/08 01:15:47;;;;;;;32.07;20.47;;;1.80;99.90;;;;;;4956988;28;20050;-81
2023/12/08 01:18:13;;;;;;;29.37;18.73;;;1.80;99.90;;;;;;4940873;28;20049;-81
2023/12/08 01:20:39;;;;;;;29.70;20.03;;;1.80;99.90;;;;;;4957515;28;20039;-80
2023/12/08 01:23:04;;;;;;;28.03;19.20;;;1.80;99.90;;;;;;4935808;28;20034;-81
2023/12/08 01:25:30;;;;;;;28.10;18.83;;;1.80;99.90;;;;;;4989088;28;20380;-81
2023/12/08 01:27:56;;;;;;;29.63;19.53;;;1.80;99.90;;;;;;4958619;28;20128;-81
2023/12/08 01:30:22;;;;;;;29.97;19.83;;;1.80;99.90;;;;;;4973135;28;20056;-80
2023/12/08 01:32:48;;;;;;;35.90;20.03;;;1.90;99.90;;;;;;4956427;28;20049;-81
2023/12/08 01:35:13;;;;;;;29.83;18.73;;;1.90;99.90;;;;;;4956889;28;20031;-80
2023/12/08 01:37:39;;;;;;;28.80;18.57;;;1.90;99.90;;;;;;4984376;28;20093;-81
2023/12/08 01:40:06;;;;;;;28.70;19.33;;;1.80;99.90;;;;;;4956020;28;20404;-81
2023/12/08 01:42:32;;;;;;;31.30;19.97;;;1.90;99.90;;;;;;4973894;28;20042;-81
2023/12/08 01:44:58;;;;;;;30.10;19.77;;;1.90;99.90;;;;;;4972441;28;20035;-81
2023/12/08 01:47:24;;;;;;;32.87;20.00;;;1.90;99.90;;;;;;4950942;28;20046;-81
2023/12/08 01:49:51;;;;;;;29.60;19.87;;;1.90;99.90;;;;;;4972016;28;20049;-81
2023/12/08 01:52:24;;;;;;;31.03;19.53;;;1.90;99.90;;;;;;4959447;28;20080;-81
2023/12/08 01:54:54;;;;;;;35.67;21.33;;;1.90;99.90;;;;;;4974203;28;20038;-80
2023/12/08 01:57:21;;;;;;;32.00;20.00;;;1.80;99.90;;;;;;4971565;28;20130;-80
2023/12/08 01:59:48;;;;;;;31.37;20.13;;;1.80;99.90;;;;;;4965265;28;20197;-80
2023/12/08 02:02:14;;;;;;;33.20;20.60;;;1.90;99.90;;;;;;4963961;28;20820;-81
2023/12/08 02:04:44;;;;;;;29.33;19.23;;;1.80;99.90;;;;;;4951835;28;20046;-81
2023/12/08 02:07:10;;;;;;;31.20;20.33;;;1.90;99.90;;;;;;4973652;28;20038;-80
2023/12/08 02:09:37;;;;;;;32.17;20.83;;;1.90;99.90;;;;;;4957930;28;20396;-80
2023/12/08 02:12:04;;;;;;;30.20;19.67;;;1.90;99.90;;;;;;4972729;28;20054;-81
2023/12/08 02:14:30;;;;;;;31.33;20.30;;;1.80;99.90;;;;;;4954692;28;20474;-80
2023/12/08 02:17:08;;;;;;;29.30;19.33;;;1.80;99.90;;;;;;4960145;28;20052;-80
2023/12/08 02:19:34;;;;;;;31.87;20.13;;;1.80;99.90;;;;;;4984293;28;20053;-81
2023/12/08 02:22:00;;;;;;;32.57;20.80;;;1.80;99.90;;;;;;4939206;28;20045;-81
2023/12/08 02:24:25;;;;;;;31.47;20.00;;;1.80;99.90;;;;;;4983360;28;20038;-81
2023/12/08 02:26:51;;;;;;;33.83;20.53;;;1.80;99.90;;;;;;4956143;28;20053;-81
2023/12/08 02:29:17;;;;;;;30.77;19.33;;;1.80;99.90;;;;;;4983149;28;20046;-80
2023/12/08 02:31:54;;;;;;;33.23;20.70;;;1.80;99.90;;;;;;4955227;28;20379;-81
2023/12/08 02:34:24;;;;;;;32.53;20.17;;;1.90;99.90;;;;;;4967418;28;20117;-80
2023/12/08 02:36:53;;;;;;;31.03;20.33;;;1.80;99.90;;;;;;4970408;28;20403;-81
2023/12/08 02:39:20;;;;;;;31.53;20.00;;;1.80;99.90;;;;;;4967990;28;20101;-81
2023/12/08 02:41:46;;;;;;;30.40;19.77;;;1.80;99.90;;;;;;4936574;28;20487;-80
2023/12/08 02:44:12;;;;;;;31.27;20.03;;;1.80;99.90;;;;;;4976005;28;20049;-80
2023/12/08 02:46:38;;;;;;;30.47;19.87;;;1.80;99.90;;;;;;4956578;28;20048;-80
2023/12/08 02:49:04;;;;;;;32.13;20.23;;;1.80;99.90;;;;;;4969034;28;20432;-80
2023/12/08 02:51:30;;;;;;;30.57;20.33;;;1.80;99.90;;;;;;4952964;28;20043;-81
2023/12/08 02:53:55;;;;;;;31.07;20.67;;;1.80;99.90;;;;;;4986669;28;20188;-81
2023/12/08 02:56:21;;;;;;;30.10;19.83;;;1.80;99.90;;;;;;4971412;28;20042;-80
2023/12/08 02:58:47;;;;;;;31.10;20.33;;;1.80;99.90;;;;;;4959544;28;20072;-81
2023/12/08 03:01:14;;;;;;;32.77;20.97;;;1.80;99.90;;;;;;4956790;28;20720;-81
2023/12/08 03:03:40;;;;;;;29.57;19.63;;;1.80;99.90;;;;;;4957104;28;20039;-81
2023/12/08 03:06:06;;;;;;;32.90;19.70;;;1.70;99.90;;;;;;4952639;28;20108;-79
2023/12/08 03:08:32;;;;;;;31.13;19.40;;;1.70;99.90;;;;;;4974014;28;20057;-81
2023/12/08 03:10:58;;;;;;;31.53;20.57;;;1.70;99.90;;;;;;4987752;28;20050;-80
2023/12/08 03:13:23;;;;;;;31.33;19.97;;;1.80;99.90;;;;;;4954491;28;20053;-80
2023/12/08 03:15:49;;;;;;;32.60;20.27;;;1.80;99.90;;;;;;4949919;28;20042;-80
2023/12/08 03:18:15;;;;;;;32.60;19.90;;;1.80;99.90;;;;;;4955201;28;20056;-81
2023/12/08 03:20:40;;;;;;;33.27;20.13;;;1.80;99.90;;;;;;4970576;28;20038;-81
2023/12/08 03:23:06;;;;;;;30.37;19.37;;;1.80;99.90;;;;;;4966540;28;20738;-81
2023/12/08 03:25:32;;;;;;;29.50;19.17;;;1.80;99.90;;;;;;4951956;28;20364;-81
2023/12/08 03:27:57;;;;;;;30.70;19.63;;;1.80;99.90;;;;;;4987429;28;20397;-81
2023/12/08 03:30:23;;;;;;;33.10;19.77;;;1.70;99.90;;;;;;4972452;28;20088;-80
2023/12/08 03:32:49;;;;;;;31.00;19.37;;;1.70;99.90;;;;;;4970486;28;20399;-80
2023/12/08 03:35:14;;;;;;;31.13;18.87;;;1.70;99.90;;;;;;4974117;28;20038;-80
2023/12/08 03:37:41;;;;;;;30.00;19.73;;;1.70;99.90;;;;;;4954547;28;20459;-80
2023/12/08 03:40:07;;;;;;;31.57;19.60;;;1.80;99.90;;;;;;4957155;28;20046;-80
2023/12/08 03:42:36;;;;;;;28.50;18.97;;;1.80;99.90;;;;;;4969127;28;20042;-80
2023/12/08 03:45:03;;;;;;;27.97;19.20;;;1.80;99.90;;;;;;4971839;28;20046;-81
2023/12/08 03:47:28;;;;;;;29.20;18.67;;;1.80;99.90;;;;;;4958387;28;20039;-80
2023/12/08 03:49:54;;;;;;;31.53;19.33;;;1.80;99.90;;;;;;4958340;28;20038;-80
2023/12/08 03:52:20;;;;;;;31.27;19.93;;;1.80;99.90;;;;;;4970813;28;20507;-80
2023/12/08 03:54:45;;;;;;;32.30;19.70;;;1.80;99.90;;;;;;4956763;28;20096;-80
2023/12/08 03:57:11;;;;;;;30.63;19.37;;;1.80;99.90;;;;;;4953782;28;20089;-80
2023/12/08 03:59:37;;;;;;;30.57;18.67;;;1.80;99.90;;;;;;4955090;28;20149;-81
2023/12/08 04:02:03;;;;;;;36.17;20.43;;;1.70;99.90;;;;;;4972762;28;20078;-80
2023/12/08 04:04:29;;;;;;;32.70;21.13;;;1.70;99.90;;;;;;4976088;28;20054;-80
2023/12/08 04:06:56;;;;;;;31.83;20.07;;;1.70;99.90;;;;;;4943117;28;20415;-81
2023/12/08 04:09:21;;;;;;;32.80;20.63;;;1.60;99.90;;;;;;4971831;28;20045;-80
2023/12/08 04:11:47;;;;;;;31.33;20.43;;;1.60;99.90;;;;;;4955059;28;20050;-80
2023/12/08 04:14:13;;;;;;;33.77;20.50;;;1.60;99.90;;;;;;4958743;28;20039;-80
2023/12/08 04:16:39;;;;;;;33.87;21.10;;;1.60;99.90;;;;;;4955866;28;20077;-80
2023/12/08 04:19:05;;;;;;;38.10;23.10;;;1.50;99.90;;;;;;4971637;28;20365;-81
2023/12/08 04:21:31;;;;;;;34.10;21.63;;;1.50;99.90;;;;;;4991312;28;20080;-81
2023/12/08 04:23:57;;;;;;;34.57;21.80;;;1.50;99.90;;;;;;4987082;28;20073;-80
2023/12/08 04:26:25;;;;;;;33.40;20.77;;;1.50;99.90;;;;;;4972988;28;20038;-81
2023/12/08 04:28:52;;;;;;;33.13;21.77;;;1.50;99.90;;;;;;4974765;28;20494;-81
2023/12/08 04:31:18;;;;;;;33.70;21.67;;;1.50;99.90;;;;;;4990101;28;20045;-81
2023/12/08 04:33:44;;;;;;;37.87;22.43;;;1.40;99.90;;;;;;4973945;28;20554;-81
2023/12/08 04:36:10;;;;;;;32.73;21.30;;;1.40;99.90;;;;;;4958918;28;20038;-81
2023/12/08 04:38:36;;;;;;;36.63;22.87;;;1.40;99.90;;;;;;4973441;28;20534;-82
2023/12/08 04:41:02;;;;;;;34.43;21.33;;;1.40;99.90;;;;;;4968596;28;20126;-82
2023/12/08 04:43:27;;;;;;;37.77;22.83;;;1.40;99.90;;;;;;4956261;28;20053;-82
2023/12/08 04:45:53;;;;;;;35.37;21.90;;;1.40;99.90;;;;;;4973755;28;20034;-81
2023/12/08 04:48:19;;;;;;;37.23;22.60;;;1.40;99.90;;;;;;4954436;28;20061;-82
2023/12/08 04:50:45;;;;;;;36.97;22.30;;;1.40;99.90;;;;;;4943065;28;20125;-82
2023/12/08 04:53:11;;;;;;;36.27;22.20;;;1.40;99.90;;;;;;4986077;28;20042;-82
2023/12/08 04:55:37;;;;;;;33.50;22.67;;;1.40;99.90;;;;;;4971948;28;20038;-82
2023/12/08 04:58:03;;;;;;;34.87;22.17;;;1.40;99.90;;;;;;4971628;28;20085;-82
2023/12/08 05:00:29;;;;;;;36.73;22.23;;;1.40;99.90;;;;;;4973416;28;20121;-82
2023/12/08 05:02:58;;;;;;;33.13;21.73;;;1.40;99.90;;;;;;4950078;28;20116;-82
2023/12/08 05:05:24;;;;;;;32.97;20.83;;;1.40;99.90;;;;;;4959140;28;20031;-82
2023/12/08 05:07:50;;;;;;;36.87;23.00;;;1.40;99.90;;;;;;4973244;28;20034;-82
2023/12/08 05:10:16;;;;;;;36.83;22.53;;;1.30;99.90;;;;;;4970155;28;20049;-82
2023/12/08 05:12:43;;;;;;;34.17;21.43;;;1.40;99.90;;;;;;4985252;28;20854;-83
2023/12/08 05:15:09;;;;;;;34.87;22.10;;;1.40;99.90;;;;;;4972568;28;20035;-82
2023/12/08 05:17:35;;;;;;;36.80;22.07;;;1.40;99.90;;;;;;4988834;28;20372;-82
2023/12/08 05:20:05;;;;;;;34.73;22.50;;;1.40;99.90;;;;;;4971046;28;20078;-82
2023/12/08 05:22:31;;;;;;;33.67;21.40;;;1.30;99.90;;;;;;4956792;28;20061;-82
2023/12/08 05:24:57;;;;;;;37.70;22.60;;;1.30;99.90;;;;;;4971150;28;20163;-82
2023/12/08 05:27:22;;;;;;;34.97;23.00;;;1.30;99.90;;;;;;4970719;28;20133;-83
2023/12/08 05:29:48;;;;;;;35.17;22.47;;;1.30;99.90;;;;;;4955927;28;20507;-81
2023/12/08 05:32:14;;;;;;;38.43;23.07;;;1.30;99.90;;;;;;4966248;28;20471;-82
2023/12/08 05:34:39;;;;;;;37.83;22.23;;;1.40;99.90;;;;;;4992072;28;20035;-82
2023/12/08 05:37:06;;;;;;;37.60;23.10;;;1.30;99.90;;;;;;4970226;28;20070;-82
2023/12/08 05:39:32;;;;;;;39.73;23.47;;;1.30;99.90;;;;;;4984450;28;20087;-82
2023/12/08 05:41:58;;;;;;;34.33;21.93;;;1.30;99.90;;;;;;4988527;28;20042;-82
2023/12/08 05:44:23;;;;;;;34.93;21.37;;;1.30;99.90;;;;;;4986229;28;20035;-82
2023/12/08 05:46:49;;;;;;;37.03;22.47;;;1.30;99.90;;;;;;4987225;28;20860;-81
2023/12/08 05:49:17;;;;;;;34.97;22.00;;;1.40;99.90;;;;;;4942029;28;20078;-83
2023/12/08 05:51:43;;;;;;;34.13;21.33;;;1.40;99.90;;;;;;4957064;28;20046;-84
2023/12/08 05:54:09;;;;;;;37.93;22.80;;;1.40;99.90;;;;;;4991059;28;20399;-81
2023/12/08 05:56:35;;;;;;;35.17;22.17;;;1.40;99.90;;;;;;4983867;28;20073;-82
2023/12/08 05:59:01;;;;;;;37.37;22.70;;;1.40;99.90;;;;;;4963306;28;20038;-81
2023/12/08 06:01:27;;;;;;;33.90;21.80;;;1.40;99.90;;;;;;4969695;28;20042;-81
2023/12/08 06:03:53;;;;;;;35.70;22.17;;;1.40;99.90;;;;;;4971492;28;20054;-81
2023/12/08 06:06:19;;;;;;;37.80;22.33;;;1.40;99.90;;;;;;4971481;28;20046;-81
2023/12/08 06:08:44;;;;;;;35.80;22.53;;;1.40;99.90;;;;;;4970839;28;20046;-82
2023/12/08 06:11:10;;;;;;;33.70;22.40;;;1.40;99.90;;;;;;4990959;28;20053;-81
2023/12/08 06:13:36;;;;;;;33.70;22.13;;;1.40;99.90;;;;;;4991310;28;20053;-81
2023/12/08 06:16:03;;;;;;;37.20;21.83;;;1.40;99.90;;;;;;4989841;28;20519;-81
2023/12/08 06:18:29;;;;;;;36.80;23.10;;;1.40;99.90;;;;;;4975770;28;20462;-82
2023/12/08 06:20:55;;;;;;;37.47;22.37;;;1.40;99.90;;;;;;4969334;28;20038;-82
2023/12/08 06:23:21;;;;;;;35.67;22.50;;;1.40;99.90;;;;;;4972086;28;20046;-82
2023/12/08 06:25:47;;;;;;;35.97;22.00;;;1.40;99.90;;;;;;4984855;28;20130;-83
2023/12/08 06:28:13;;;;;;;38.53;22.90;;;1.40;99.90;;;;;;4973795;28;20042;-82
2023/12/08 06:30:38;;;;;;;40.27;22.93;;;1.40;99.90;;;;;;4971907;28;20122;-82
2023/12/08 06:33:05;;;;;;;39.23;23.23;;;1.40;99.90;;;;;;4972686;28;20064;-82
2023/12/08 06:35:30;;;;;;;36.87;23.17;;;1.30;99.90;;;;;;4983114;28;20046;-82
2023/12/08 06:37:56;;;;;;;38.07;22.63;;;1.40;99.90;;;;;;4967624;28;20049;-82
2023/12/08 06:40:22;;;;;;;39.43;22.63;;;1.40;99.90;;;;;;4984133;28;20031;-82
2023/12/08 06:42:48;;;;;;;40.17;24.47;;;1.40;99.90;;;;;;4981760;28;20499;-83
2023/12/08 06:45:13;;;;;;;38.63;23.60;;;1.40;99.90;;;;;;4984338;28;20053;-82
2023/12/08 06:47:39;;;;;;;38.47;24.33;;;1.40;99.90;;;;;;4986558;28;20105;-81
2023/12/08 06:50:05;;;;;;;45.00;25.53;;;1.40;99.90;;;;;;4989321;28;20128;-82
2023/12/08 06:52:32;;;;;;;42.60;23.93;;;1.30;99.90;;;;;;4971815;28;20115;-83
2023/12/08 06:54:57;;;;;;;41.40;25.93;;;1.30;99.90;;;;;;4954933;28;20077;-84
2023/12/08 06:57:23;;;;;;;41.77;24.63;;;1.30;99.90;;;;;;4971800;28;20046;-82
2023/12/08 06:59:49;;;;;;;38.33;24.07;;;1.30;99.90;;;;;;4972218;28;20045;-82
2023/12/08 07:02:15;;;;;;;41.00;24.47;;;1.30;99.90;;;;;;4971994;28;20077;-82
2023/12/08 07:04:41;;;;;;;40.27;24.27;;;1.30;99.90;;;;;;4969990;28;20038;-83
2023/12/08 07:07:07;;;;;;;42.53;25.07;;;1.40;99.90;;;;;;4969424;28;21085;-82
2023/12/08 07:09:32;;;;;;;40.40;24.53;;;1.40;99.90;;;;;;4985654;28;20085;-83
2023/12/08 07:11:58;;;;;;;38.03;24.37;;;1.40;99.90;;;;;;4971315;28;20089;-82
2023/12/08 07:14:24;;;;;;;45.67;24.90;;;1.30;99.90;;;;;;4961222;28;20045;-82
2023/12/08 07:16:50;;;;;;;40.03;24.23;;;1.30;99.90;;;;;;4955031;28;20145;-82
2023/12/08 07:19:15;;;;;;;40.00;23.83;;;1.30;99.90;;;;;;4985907;28;20511;-82
2023/12/08 07:21:42;;;;;;;41.00;25.47;;;1.30;99.90;;;;;;4971352;28;20042;-82
2023/12/08 07:24:09;;;;;;;45.80;27.20;;;1.30;99.90;;;;;;4969893;28;20046;-83
2023/12/08 07:26:36;;;;;;;46.57;28.20;;;1.30;99.90;;;;;;4939364;28;20117;-82
2023/12/08 07:29:02;;;;;;;47.50;27.70;;;1.30;99.90;;;;;;4970834;28;20068;-83
2023/12/08 07:31:28;;;;;;;42.73;26.60;;;1.30;99.90;;;;;;4967631;28;20050;-83
2023/12/08 07:33:55;;;;;;;41.83;25.27;;;1.30;99.90;;;;;;4973884;28;20046;-82
2023/12/08 07:36:21;;;;;;;41.47;25.10;;;1.30;99.90;;;;;;4959193;28;20129;-81
2023/12/08 07:38:47;;;;;;;40.37;23.97;;;1.30;99.90;;;;;;4960785;28;20482;-82
2023/12/08 07:41:12;;;;;;;39.53;24.60;;;1.30;99.90;;;;;;4970716;28;20460;-82
2023/12/08 07:43:38;;;;;;;40.77;23.97;;;1.30;99.90;;;;;;4941521;28;20043;-81
2023/12/08 07:46:04;;;;;;;42.30;25.63;;;1.30;99.90;;;;;;4942850;28;20053;-82
2023/12/08 07:48:30;;;;;;;41.43;23.87;;;1.30;99.90;;;;;;4973414;28;20082;-83
2023/12/08 07:50:56;;;;;;;36.77;23.27;;;1.30;99.90;;;;;;4957194;28;20038;-82
2023/12/08 07:53:22;;;;;;;43.90;26.30;;;1.30;99.90;;;;;;4976222;28;20596;-82
2023/12/08 07:55:48;;;;;;;39.40;24.80;;;1.30;99.90;;;;;;4989611;28;20073;-82
2023/12/08 07:58:14;;;;;;;46.53;25.03;;;1.40;99.90;;;;;;4973571;28;20495;-81
2023/12/08 08:00:39;;;;;;;41.50;25.20;;;1.40;99.90;;;;;;4988311;28;20504;-83
2023/12/08 08:03:05;;;;;;;38.13;24.03;;;1.40;99.90;;;;;;4987282;28;20821;-82
2023/12/08 08:05:31;;;;;;;44.90;26.40;;;1.40;99.90;;;;;;4986621;28;20045;-82
2023/12/08 08:07:57;;;;;;;42.67;24.40;;;1.40;99.90;;;;;;4986523;28;20078;-81
2023/12/08 08:10:22;;;;;;;38.63;24.40;;;1.40;99.90;;;;;;4968689;28;20050;-81
2023/12/08 08:12:48;;;;;;;39.03;23.87;;;1.40;99.90;;;;;;4955998;28;20038;-80
2023/12/08 08:15:14;;;;;;;40.17;23.87;;;1.40;99.90;;;;;;4953519;28;20060;-82
2023/12/08 08:17:40;;;;;;;37.97;24.23;;;1.40;99.90;;;;;;4974602;28;20039;-81
2023/12/08 08:20:07;;;;;;;44.40;26.60;;;1.40;99.90;;;;;;4992777;28;20562;-81
2023/12/08 08:22:33;;;;;;;38.27;23.93;;;1.50;99.90;;;;;;4975429;28;20064;-85
2023/12/08 08:24:59;;;;;;;39.60;24.20;;;1.40;99.90;;;;;;4975755;28;20535;-81
2023/12/08 08:27:25;;;;;;;40.20;24.70;;;1.40;99.90;;;;;;4973645;28;20061;-82
2023/12/08 08:29:51;;;;;;;41.80;25.37;;;1.40;99.90;;;;;;4974786;28;20034;-81
2023/12/08 08:32:17;;;;;;;41.13;24.77;;;1.40;99.90;;;;;;4972992;28;20125;-81
2023/12/08 08:34:43;;;;;;;36.80;23.03;;;1.40;99.90;;;;;;4975913;28;20044;-81
2023/12/08 08:37:09;;;;;;;41.37;24.47;;;1.40;99.90;;;;;;4974822;28;20045;-82
2023/12/08 08:39:35;;;;;;;38.27;24.20;;;1.50;99.90;;;;;;4992845;28;20050;-81
2023/12/08 08:42:01;;;;;;;40.17;24.73;;;1.40;99.90;;;;;;4971545;28;20041;-81
2023/12/08 08:44:27;;;;;;;41.20;24.17;;;1.50;99.90;;;;;;4974189;28;20050;-82
2023/12/08 08:46:53;;;;;;;39.97;23.70;;;1.50;99.90;;;;;;4972121;28;20039;-82
2023/12/08 08:49:19;;;;;;;37.83;23.23;;;1.50;99.90;;;;;;4974668;28;20034;-81
2023/12/08 08:51:45;;;;;;;45.33;25.53;;;1.50;99.90;;;;;;4971751;28;20062;-82
2023/12/08 08:54:11;;;;;;;40.93;24.60;;;1.50;99.90;;;;;;4971616;28;20143;-82
2023/12/08 08:56:36;;;;;;;41.40;24.77;;;1.50;99.90;;;;;;4990069;28;20050;-81
2023/12/08 08:59:05;;;;;;;37.30;23.37;;;1.50;99.90;;;;;;4988955;28;20161;-81
2023/12/08 09:01:31;;;;;;;38.63;22.97;;;1.50;99.90;;;;;;4956090;28;20159;-82
2023/12/08 09:03:56;;;;;;;39.33;24.60;;;1.50;99.90;;;;;;4960443;28;20133;-82
2023/12/08 09:06:22;;;;;;;40.27;24.37;;;1.50;99.90;;;;;;4968274;28;20431;-81
2023/12/08 09:08:48;;;;;;;41.43;24.87;;;1.60;99.90;;;;;;4989790;28;20048;-82
2023/12/08 09:11:14;;;;;;;42.60;24.50;;;1.60;99.90;;;;;;4987777;28;20062;-81
2023/12/08 09:13:39;;;;;;;37.30;22.60;;;1.60;99.90;;;;;;4973801;28;20081;-81
2023/12/08 09:16:05;;;;;;;40.97;23.87;;;1.60;99.90;;;;;;4987977;28;20365;-81
2023/12/08 09:18:32;;;;;;;38.83;23.07;;;1.60;99.90;;;;;;4956443;28;20420;-80
2023/12/08 09:20:58;;;;;;;36.50;23.13;;;1.60;99.90;;;;;;4995096;28;20526;-83
2023/12/08 09:23:24;;;;;;;37.40;23.00;;;1.60;99.90;;;;;;4972346;28;20534;-81
2023/12/08 09:25:49;;;;;;;40.10;24.00;;;1.60;99.90;;;;;;4989706;28;20050;-81
2023/12/08 09:28:17;;;;;;;42.37;24.67;;;1.60;99.90;;;;;;4972118;28;20049;-82
2023/12/08 09:30:43;;;;;;;42.37;23.57;;;1.60;99.90;;;;;;4957984;28;20064;-81
2023/12/08 09:33:09;;;;;;;36.77;24.37;;;1.60;99.90;;;;;;4955456;28;20042;-81
2023/12/08 09:35:35;;;;;;;38.90;24.40;;;1.70;99.90;;;;;;4958609;28;20042;-81
2023/12/08 09:38:01;;;;;;;43.60;25.27;;;1.70;99.90;;;;;;4990442;28;20279;-81
2023/12/08 09:40:28;;;;;;;37.87;23.40;;;1.70;99.90;;;;;;4956404;28;20039;-81
2023/12/08 09:43:30;;;;;;;37.53;23.03;;;1.70;99.90;;;;;;4987923;28;20447;-81
2023/12/08 09:45:56;;;;;;;36.90;23.13;;;1.70;99.90;;;;;;4970306;28;20419;-81
2023/12/08 09:48:25;;;;;;;37.40;23.53;;;1.70;99.90;;;;;;4971437;28;20050;-81
2023/12/08 09:50:53;;;;;;;42.07;24.07;;;1.70;99.90;;;;;;4975794;28;20100;-81
2023/12/08 09:53:19;;;;;;;42.07;23.37;;;1.70;99.90;;;;;;4975378;28;20137;-81
2023/12/08 09:55:47;;;;;;;37.60;22.97;;;1.70;99.90;;;;;;4966635;28;20113;-81
2023/12/08 09:58:16;;;;;;;38.83;24.10;;;1.70;99.90;;;;;;4959893;28;20597;-81
2023/12/08 10:00:42;;;;;;;36.50;22.33;;;1.70;99.90;;;;;;4975881;28;20096;-84
2023/12/08 10:03:08;;;;;;;34.47;22.93;;;1.70;99.90;;;;;;4968811;28;20543;-83
2023/12/08 10:05:34;;;;;;;39.97;23.70;;;1.80;99.90;;;;;;4972390;28;20085;-83
2023/12/08 10:08:01;;;;;;;35.60;22.87;;;1.80;99.90;;;;;;4957290;28;20038;-83
2023/12/08 10:10:27;;;;;;;40.77;24.77;;;1.80;99.90;;;;;;4952936;28;20547;-83
2023/12/08 10:12:53;;;;;;;39.03;24.73;;;1.80;99.90;;;;;;4958236;28;20153;-84
2023/12/08 10:15:20;;;;;;;40.47;24.97;;;1.80;99.90;;;;;;4973197;28;20503;-83
2023/12/08 10:17:51;;;;;;;40.60;24.77;;;1.80;99.90;;;;;;4988165;28;20602;-84
2023/12/08 10:20:19;;;;;;;39.30;24.65;;;1.80;99.90;;;;;;4972706;28;20337;-81
2023/12/08 10:22:51;;;;;;;38.23;23.27;;;1.80;99.90;;;;;;4941001;28;20525;-82
2023/12/08 10:25:21;;;;;;;40.25;23.95;;;1.80;99.90;;;;;;4971102;28;20419;-84
2023/12/08 10:27:52;;;;;;;39.10;24.07;;;1.80;99.90;;;;;;4988260;28;20456;-84
2023/12/08 10:30:23;;;;;;;36.60;22.70;;;1.80;99.90;;;;;;4973043;28;20537;-84
2023/12/08 10:32:49;;;;;;;39.75;25.25;;;1.80;99.90;;;;;;4973426;28;20483;-85
2023/12/08 10:35:16;;;;;;;42.50;25.40;;;1.80;99.90;;;;;;4972483;28;20598;-86
2023/12/08 10:37:43;;;;;;;38.33;24.00;;;1.90;99.90;;;;;;4990033;28;20395;-85
2023/12/08 10:40:15;;;;;;;41.67;24.37;;;1.90;99.90;;;;;;4988721;28;20061;-82
2023/12/08 10:42:45;;;;;;;42.43;25.57;;;1.90;99.90;;;;;;4986573;28;20077;-82
2023/12/08 10:45:11;;;;;;;41.67;25.87;;;1.90;99.90;;;;;;4968659;28;20057;-86
2023/12/08 10:47:43;;;;;;;39.33;24.63;;;2.00;99.90;;;;;;4974438;28;20041;-82
2023/12/08 10:50:10;;;;;;;43.93;26.47;;;1.90;99.90;;;;;;4983332;28;20046;-83
2023/12/08 10:52:40;;;;;;;41.27;24.53;;;1.90;99.90;;;;;;4986080;28;20057;-82
2023/12/08 10:55:10;;;;;;;43.73;26.47;;;1.90;99.90;;;;;;4972616;28;20052;-83
2023/12/08 10:57:36;;;;;;;46.00;28.03;;;1.90;99.90;;;;;;4984823;28;20132;-83
2023/12/08 11:00:17;;;;;;;43.77;26.63;;;1.80;99.90;;;;;;4968796;28;20748;-83
2023/12/08 11:02:49;;;;;;;49.00;27.67;;;1.90;99.90;;;;;;4974145;28;20098;-82
2023/12/08 11:05:28;;;;;;;47.05;28.10;;;1.90;99.90;;;;;;4972598;28;20077;-82
2023/12/08 11:07:58;;;;;;;46.57;27.43;;;1.80;99.90;;;;;;4970523;28;20038;-83
2023/12/08 11:10:27;;;;;;;45.50;27.33;;;1.80;99.90;;;;;;4971501;28;20073;-83
2023/12/08 11:13:01;;;;;;;41.97;26.67;;;1.90;99.90;;;;;;4987702;28;20052;-83
2023/12/08 11:15:33;;;;;;;49.73;28.73;;;1.90;99.90;;;;;;4971787;28;20233;-82
2023/12/08 11:18:24;;;;;;;47.47;26.67;;;1.90;99.90;;;;;;4969866;28;20038;-83
2023/12/08 11:20:51;;;;;;;48.53;27.50;;;1.90;99.90;;;;;;4975927;28;20514;-82
2023/12/08 11:23:18;;;;;;;47.37;27.13;;;2.00;99.90;;;;;;4971048;28;20035;-82
2023/12/08 11:26:10;;;;;;;50.23;27.90;;;2.00;99.90;;;;;;4987906;28;20105;-82
2023/12/08 11:28:52;;;;;;;50.22;28.58;;;1.90;99.90;;;;;;4937874;28;20042;-82
2023/12/08 11:31:22;;;;;;;50.83;28.25;;;2.00;99.90;;;;;;4987605;28;20243;-83
2023/12/08 11:34:25;;;;;;;56.73;30.20;;;2.00;99.90;;;;;;4983623;28;20046;-81
2023/12/08 11:36:51;;;;;;;56.77;30.23;;;1.90;99.90;;;;;;4984511;28;20439;-82
2023/12/08 11:39:38;;;;;;;50.77;28.40;;;2.00;99.90;;;;;;4988799;28;20049;-82
2023/12/08 11:42:10;;;;;;;51.33;27.73;;;2.00;99.90;;;;;;4976744;28;20081;-82
2023/12/08 11:44:37;;;;;;;57.20;29.90;;;2.00;99.90;;;;;;4972588;28;20057;-82
2023/12/08 11:47:08;;;;;;;55.53;30.40;;;2.00;99.90;;;;;;4971316;28;20385;-82
2023/12/08 11:49:37;;;;;;;50.40;28.73;;;2.00;99.90;;;;;;4986043;28;20046;-82
2023/12/08 11:52:18;;;;;;;60.23;31.00;;;2.00;99.90;;;;;;4971794;28;20072;-82
2023/12/08 11:55:24;;;;;;;61.13;30.20;;;2.10;99.90;;;;;;4985409;28;20561;-82
2023/12/08 11:58:01;;;;;;;56.60;29.07;;;2.10;99.90;;;;;;4969455;28;20043;-81
2023/12/08 12:00:29;;;;;;;62.47;30.03;;;2.10;99.90;;;;;;4985650;28;20050;-82
2023/12/08 12:02:56;;;;;;;64.23;30.63;;;2.10;99.90;;;;;;4989172;28;20117;-83
2023/12/08 12:05:23;;;;;;;62.70;31.80;;;2.10;99.90;;;;;;4970816;28;20100;-82
2023/12/08 12:07:53;;;;;;;91.50;37.27;;;2.10;99.90;;;;;;4970808;28;20362;-82
2023/12/08 12:10:28;;;;;;;61.87;33.10;;;2.10;99.90;;;;;;4968759;28;20042;-82
2023/12/08 12:13:12;;;;;;;72.13;33.13;;;2.00;99.90;;;;;;4986662;28;20136;-83
2023/12/08 12:15:40;;;;;;;76.03;33.53;;;2.00;99.90;;;;;;4984004;28;20046;-82
2023/12/08 12:18:07;;;;;;;106.17;41.07;;;2.10;99.90;;;;;;4989053;28;20117;-82
2023/12/08 12:20:35;;;;;;;68.33;32.73;;;2.00;99.90;;;;;;4973554;28;20061;-81
2023/12/08 12:23:01;;;;;;;80.07;36.07;;;2.00;99.90;;;;;;4973538;28;20450;-82
2023/12/08 12:25:27;;;;;;;71.23;35.87;;;2.00;99.90;;;;;;4993399;28;20436;-82
2023/12/08 12:27:54;;;;;;;72.03;33.40;;;2.00;99.90;;;;;;4977113;28;20081;-82
2023/12/08 12:30:20;;;;;;;77.93;33.80;;;2.00;99.90;;;;;;4974125;28;20046;-82
2023/12/08 12:32:49;;;;;;;68.40;33.43;;;2.00;99.90;;;;;;4957219;28;20046;-81
2023/12/08 12:35:16;;;;;;;91.87;39.30;;;2.00;99.90;;;;;;4992804;28;20053;-82